Woodbine, Iowa
Current Conditions -  °F | °C
As of 9:55 PM on Saturday 24 Jan 2015 (Local Time) from KHNR Reporting Station
Overcast Overcast  
Wind Chill: 36°   Ceiling: 6000
Heat Index: 43°   Visibility: 10mi
Dew Point: 43°   Wind: 14mph
Humidity: 100%   Direction: 240°WSW
Pressure: 29.6"   Gusts: NA
Location:  41.74°N, 95.7°W
Report Text: KHNR 250355Z AUTO 24012KT 10SM FEW050 OVC060 06/06 A2960 RMK AO2
Loading
Personal Weather Stations






























Interactive Weather Map New forecast layout! Learn more

10-Day Weather Forecast

Advertisements
Track Severe Weather on mobile